sensor_id;sensor_type;location;lat;lon;timestamp;P1;durP1;ratioP1;P2;durP2;ratioP2
60006;SDS011;45863;50.336;3.536;2023-03-12T00:00:17;13.25;;;3.08;;
60006;SDS011;45863;50.336;3.536;2023-03-12T00:02:42;7.90;;;3.45;;
60006;SDS011;45863;50.336;3.536;2023-03-12T00:05:08;10.23;;;3.33;;
60006;SDS011;45863;50.336;3.536;2023-03-12T00:07:33;10.48;;;3.00;;
60006;SDS011;45863;50.336;3.536;2023-03-12T00:10:00;9.32;;;2.90;;
60006;SDS011;45863;50.336;3.536;2023-03-12T00:12:25;10.32;;;3.30;;
60006;SDS011;45863;50.336;3.536;2023-03-12T00:14:51;10.30;;;3.60;;
60006;SDS011;45863;50.336;3.536;2023-03-12T00:17:16;12.35;;;3.35;;
60006;SDS011;45863;50.336;3.536;2023-03-12T00:19:41;8.50;;;3.78;;
60006;SDS011;45863;50.336;3.536;2023-03-12T00:22:06;10.55;;;3.38;;
60006;SDS011;45863;50.336;3.536;2023-03-12T00:24:32;10.30;;;3.08;;
60006;SDS011;45863;50.336;3.536;2023-03-12T00:26:57;8.70;;;3.13;;
60006;SDS011;45863;50.336;3.536;2023-03-12T00:29:22;11.20;;;3.42;;
60006;SDS011;45863;50.336;3.536;2023-03-12T00:31:47;10.00;;;3.30;;
60006;SDS011;45863;50.336;3.536;2023-03-12T00:34:15;11.07;;;3.53;;
60006;SDS011;45863;50.336;3.536;2023-03-12T00:36:40;8.88;;;3.63;;
60006;SDS011;45863;50.336;3.536;2023-03-12T00:39:06;12.18;;;4.03;;
60006;SDS011;45863;50.336;3.536;2023-03-12T00:41:31;15.48;;;4.38;;
60006;SDS011;45863;50.336;3.536;2023-03-12T00:43:57;7.80;;;3.80;;
60006;SDS011;45863;50.336;3.536;2023-03-12T00:46:22;10.70;;;4.43;;
60006;SDS011;45863;50.336;3.536;2023-03-12T00:48:48;11.35;;;4.13;;
60006;SDS011;45863;50.336;3.536;2023-03-12T00:51:13;10.45;;;4.05;;
60006;SDS011;45863;50.336;3.536;2023-03-12T00:53:38;11.88;;;4.55;;
60006;SDS011;45863;50.336;3.536;2023-03-12T00:56:04;11.68;;;4.18;;
60006;SDS011;45863;50.336;3.536;2023-03-12T00:58:29;12.95;;;4.22;;
60006;SDS011;45863;50.336;3.536;2023-03-12T01:00:55;17.00;;;5.03;;
60006;SDS011;45863;50.336;3.536;2023-03-12T01:03:20;9.30;;;3.30;;
60006;SDS011;45863;50.336;3.536;2023-03-12T01:05:45;13.10;;;4.35;;
60006;SDS011;45863;50.336;3.536;2023-03-12T01:08:11;10.73;;;4.72;;
60006;SDS011;45863;50.336;3.536;2023-03-12T01:10:39;22.52;;;4.70;;
60006;SDS011;45863;50.336;3.536;2023-03-12T01:13:05;12.38;;;5.00;;
60006;SDS011;45863;50.336;3.536;2023-03-12T01:15:30;13.63;;;4.50;;
60006;SDS011;45863;50.336;3.536;2023-03-12T01:17:56;11.60;;;3.92;;
60006;SDS011;45863;50.336;3.536;2023-03-12T01:20:21;15.13;;;5.15;;
60006;SDS011;45863;50.336;3.536;2023-03-12T01:22:47;10.30;;;3.97;;
60006;SDS011;45863;50.336;3.536;2023-03-12T01:25:12;10.02;;;4.18;;
60006;SDS011;45863;50.336;3.536;2023-03-12T01:27:38;10.20;;;4.90;;
60006;SDS011;45863;50.336;3.536;2023-03-12T01:30:04;13.88;;;5.90;;
60006;SDS011;45863;50.336;3.536;2023-03-12T01:32:32;11.68;;;4.68;;
60006;SDS011;45863;50.336;3.536;2023-03-12T01:34:58;14.40;;;6.63;;
60006;SDS011;45863;50.336;3.536;2023-03-12T01:37:24;12.57;;;5.47;;
60006;SDS011;45863;50.336;3.536;2023-03-12T01:39:50;13.68;;;5.30;;
60006;SDS011;45863;50.336;3.536;2023-03-12T01:42:15;18.40;;;6.05;;
60006;SDS011;45863;50.336;3.536;2023-03-12T01:44:54;15.13;;;6.18;;
60006;SDS011;45863;50.336;3.536;2023-03-12T01:47:20;13.63;;;5.90;;
60006;SDS011;45863;50.336;3.536;2023-03-12T01:49:46;16.27;;;6.35;;
60006;SDS011;45863;50.336;3.536;2023-03-12T01:52:13;12.32;;;5.75;;
60006;SDS011;45863;50.336;3.536;2023-03-12T01:54:40;22.08;;;6.90;;
60006;SDS011;45863;50.336;3.536;2023-03-12T01:57:07;10.98;;;5.82;;
60006;SDS011;45863;50.336;3.536;2023-03-12T01:59:36;15.73;;;6.70;;
60006;SDS011;45863;50.336;3.536;2023-03-12T02:04:38;14.60;;;7.32;;
60006;SDS011;45863;50.336;3.536;2023-03-12T02:07:06;18.98;;;7.65;;
60006;SDS011;45863;50.336;3.536;2023-03-12T02:09:32;19.65;;;8.00;;
60006;SDS011;45863;50.336;3.536;2023-03-12T02:11:58;15.27;;;7.47;;
60006;SDS011;45863;50.336;3.536;2023-03-12T02:14:24;15.93;;;7.25;;
60006;SDS011;45863;50.336;3.536;2023-03-12T02:16:50;18.00;;;8.15;;
60006;SDS011;45863;50.336;3.536;2023-03-12T02:22:09;17.95;;;7.32;;
60006;SDS011;45863;50.336;3.536;2023-03-12T02:24:43;17.05;;;7.90;;
60006;SDS011;45863;50.336;3.536;2023-03-12T02:27:13;19.58;;;8.57;;
60006;SDS011;45863;50.336;3.536;2023-03-12T02:29:42;17.73;;;8.32;;
60006;SDS011;45863;50.336;3.536;2023-03-12T02:32:08;19.88;;;9.15;;
60006;SDS011;45863;50.336;3.536;2023-03-12T02:34:37;16.23;;;9.20;;
60006;SDS011;45863;50.336;3.536;2023-03-12T02:37:03;15.60;;;8.40;;
60006;SDS011;45863;50.336;3.536;2023-03-12T02:39:28;17.92;;;8.82;;
60006;SDS011;45863;50.336;3.536;2023-03-12T02:41:54;18.55;;;9.88;;
60006;SDS011;45863;50.336;3.536;2023-03-12T02:44:25;21.38;;;9.63;;
60006;SDS011;45863;50.336;3.536;2023-03-12T02:46:52;16.23;;;9.82;;
60006;SDS011;45863;50.336;3.536;2023-03-12T02:49:19;18.17;;;9.48;;
60006;SDS011;45863;50.336;3.536;2023-03-12T02:51:47;20.20;;;9.25;;
60006;SDS011;45863;50.336;3.536;2023-03-12T02:54:13;20.05;;;9.70;;
60006;SDS011;45863;50.336;3.536;2023-03-12T02:56:39;21.13;;;10.25;;
60006;SDS011;45863;50.336;3.536;2023-03-12T02:59:05;18.00;;;9.40;;
60006;SDS011;45863;50.336;3.536;2023-03-12T03:01:31;18.77;;;10.13;;
60006;SDS011;45863;50.336;3.536;2023-03-12T03:03:59;22.83;;;10.07;;
60006;SDS011;45863;50.336;3.536;2023-03-12T03:06:25;16.95;;;10.00;;
60006;SDS011;45863;50.336;3.536;2023-03-12T03:08:50;19.17;;;10.18;;
60006;SDS011;45863;50.336;3.536;2023-03-12T03:11:16;22.88;;;10.77;;
60006;SDS011;45863;50.336;3.536;2023-03-12T03:13:42;21.90;;;11.18;;
60006;SDS011;45863;50.336;3.536;2023-03-12T03:16:07;16.67;;;10.57;;
60006;SDS011;45863;50.336;3.536;2023-03-12T03:18:32;17.65;;;8.95;;
60006;SDS011;45863;50.336;3.536;2023-03-12T03:20:59;19.35;;;9.57;;
60006;SDS011;45863;50.336;3.536;2023-03-12T03:23:25;19.38;;;10.32;;
60006;SDS011;45863;50.336;3.536;2023-03-12T03:25:50;19.70;;;10.27;;
60006;SDS011;45863;50.336;3.536;2023-03-12T03:28:17;20.13;;;10.45;;
60006;SDS011;45863;50.336;3.536;2023-03-12T03:30:42;18.65;;;9.80;;
60006;SDS011;45863;50.336;3.536;2023-03-12T03:33:07;18.23;;;10.52;;
60006;SDS011;45863;50.336;3.536;2023-03-12T03:35:33;23.73;;;10.50;;
60006;SDS011;45863;50.336;3.536;2023-03-12T03:37:58;20.55;;;11.38;;
60006;SDS011;45863;50.336;3.536;2023-03-12T03:40:24;16.33;;;8.90;;
60006;SDS011;45863;50.336;3.536;2023-03-12T03:42:55;16.67;;;9.30;;
60006;SDS011;45863;50.336;3.536;2023-03-12T03:47:45;17.00;;;10.57;;
60006;SDS011;45863;50.336;3.536;2023-03-12T03:50:11;20.38;;;11.65;;
60006;SDS011;45863;50.336;3.536;2023-03-12T03:52:36;19.90;;;11.50;;
60006;SDS011;45863;50.336;3.536;2023-03-12T03:55:01;18.42;;;10.73;;
60006;SDS011;45863;50.336;3.536;2023-03-12T03:57:27;17.88;;;10.85;;
60006;SDS011;45863;50.336;3.536;2023-03-12T03:59:52;23.75;;;12.73;;
60006;SDS011;45863;50.336;3.536;2023-03-12T04:02:17;16.42;;;10.23;;
60006;SDS011;45863;50.336;3.536;2023-03-12T04:04:43;19.80;;;11.43;;
60006;SDS011;45863;50.336;3.536;2023-03-12T04:07:09;21.25;;;10.75;;
60006;SDS011;45863;50.336;3.536;2023-03-12T04:09:35;24.98;;;12.55;;
60006;SDS011;45863;50.336;3.536;2023-03-12T04:12:00;23.85;;;11.98;;
60006;SDS011;45863;50.336;3.536;2023-03-12T04:14:25;25.25;;;13.35;;
60006;SDS011;45863;50.336;3.536;2023-03-12T04:16:51;19.83;;;11.77;;
60006;SDS011;45863;50.336;3.536;2023-03-12T04:19:16;28.23;;;14.55;;
60006;SDS011;45863;50.336;3.536;2023-03-12T04:21:41;33.30;;;16.13;;
60006;SDS011;45863;50.336;3.536;2023-03-12T04:24:07;27.40;;;15.10;;
60006;SDS011;45863;50.336;3.536;2023-03-12T04:26:32;25.00;;;14.07;;
60006;SDS011;45863;50.336;3.536;2023-03-12T04:28:58;24.90;;;14.05;;
60006;SDS011;45863;50.336;3.536;2023-03-12T04:31:24;28.35;;;15.10;;
60006;SDS011;45863;50.336;3.536;2023-03-12T04:33:49;26.33;;;14.68;;
60006;SDS011;45863;50.336;3.536;2023-03-12T04:36:14;30.38;;;16.33;;
60006;SDS011;45863;50.336;3.536;2023-03-12T04:38:40;30.60;;;17.40;;
60006;SDS011;45863;50.336;3.536;2023-03-12T04:41:06;32.28;;;18.42;;
60006;SDS011;45863;50.336;3.536;2023-03-12T04:43:32;36.40;;;16.80;;
60006;SDS011;45863;50.336;3.536;2023-03-12T04:45:58;39.25;;;19.35;;
60006;SDS011;45863;50.336;3.536;2023-03-12T04:48:23;38.92;;;20.10;;
60006;SDS011;45863;50.336;3.536;2023-03-12T04:50:49;38.10;;;20.27;;
60006;SDS011;45863;50.336;3.536;2023-03-12T04:53:14;34.60;;;19.75;;
60006;SDS011;45863;50.336;3.536;2023-03-12T04:55:42;37.85;;;20.48;;
60006;SDS011;45863;50.336;3.536;2023-03-12T04:58:07;37.83;;;18.23;;
60006;SDS011;45863;50.336;3.536;2023-03-12T05:00:33;40.45;;;20.98;;
60006;SDS011;45863;50.336;3.536;2023-03-12T05:02:58;40.05;;;20.77;;
60006;SDS011;45863;50.336;3.536;2023-03-12T05:05:23;43.90;;;21.35;;
60006;SDS011;45863;50.336;3.536;2023-03-12T05:07:49;53.83;;;23.85;;
60006;SDS011;45863;50.336;3.536;2023-03-12T05:10:14;50.22;;;24.23;;
60006;SDS011;45863;50.336;3.536;2023-03-12T05:12:39;53.00;;;24.17;;
60006;SDS011;45863;50.336;3.536;2023-03-12T05:15:05;54.05;;;23.60;;
60006;SDS011;45863;50.336;3.536;2023-03-12T05:17:30;47.72;;;22.95;;
60006;SDS011;45863;50.336;3.536;2023-03-12T05:19:55;50.72;;;23.52;;
60006;SDS011;45863;50.336;3.536;2023-03-12T05:22:20;50.40;;;22.67;;
60006;SDS011;45863;50.336;3.536;2023-03-12T05:24:45;49.33;;;21.42;;
60006;SDS011;45863;50.336;3.536;2023-03-12T05:27:11;43.47;;;20.95;;
60006;SDS011;45863;50.336;3.536;2023-03-12T05:29:36;48.92;;;20.73;;
60006;SDS011;45863;50.336;3.536;2023-03-12T05:32:02;51.33;;;25.13;;
60006;SDS011;45863;50.336;3.536;2023-03-12T05:34:27;55.63;;;22.95;;
60006;SDS011;45863;50.336;3.536;2023-03-12T05:36:54;55.03;;;24.95;;
60006;SDS011;45863;50.336;3.536;2023-03-12T05:39:19;52.42;;;22.75;;
60006;SDS011;45863;50.336;3.536;2023-03-12T05:41:45;57.40;;;23.35;;
60006;SDS011;45863;50.336;3.536;2023-03-12T05:44:11;50.80;;;22.98;;
60006;SDS011;45863;50.336;3.536;2023-03-12T05:46:37;52.67;;;23.60;;
60006;SDS011;45863;50.336;3.536;2023-03-12T05:49:02;53.08;;;23.25;;
60006;SDS011;45863;50.336;3.536;2023-03-12T05:51:28;53.25;;;21.98;;
60006;SDS011;45863;50.336;3.536;2023-03-12T05:53:53;48.90;;;20.25;;
60006;SDS011;45863;50.336;3.536;2023-03-12T05:56:18;50.33;;;21.60;;
60006;SDS011;45863;50.336;3.536;2023-03-12T05:58:43;44.95;;;19.38;;
60006;SDS011;45863;50.336;3.536;2023-03-12T06:01:13;43.50;;;18.95;;
60006;SDS011;45863;50.336;3.536;2023-03-12T06:03:39;47.93;;;19.70;;
60006;SDS011;45863;50.336;3.536;2023-03-12T06:06:04;47.25;;;20.13;;
60006;SDS011;45863;50.336;3.536;2023-03-12T06:08:29;48.30;;;17.75;;
60006;SDS011;45863;50.336;3.536;2023-03-12T06:10:55;50.03;;;18.92;;
60006;SDS011;45863;50.336;3.536;2023-03-12T06:13:20;45.92;;;18.85;;
60006;SDS011;45863;50.336;3.536;2023-03-12T06:15:46;40.17;;;17.02;;
60006;SDS011;45863;50.336;3.536;2023-03-12T06:18:12;51.00;;;18.23;;
60006;SDS011;45863;50.336;3.536;2023-03-12T06:20:37;45.88;;;18.15;;
60006;SDS011;45863;50.336;3.536;2023-03-12T06:23:02;47.38;;;16.15;;
60006;SDS011;45863;50.336;3.536;2023-03-12T06:25:27;32.33;;;13.00;;
60006;SDS011;45863;50.336;3.536;2023-03-12T06:27:52;37.13;;;13.23;;
60006;SDS011;45863;50.336;3.536;2023-03-12T06:30:18;40.10;;;12.20;;
60006;SDS011;45863;50.336;3.536;2023-03-12T06:32:43;44.35;;;14.05;;
60006;SDS011;45863;50.336;3.536;2023-03-12T06:35:08;49.88;;;12.68;;
60006;SDS011;45863;50.336;3.536;2023-03-12T06:37:33;54.22;;;13.15;;
60006;SDS011;45863;50.336;3.536;2023-03-12T06:39:59;36.25;;;9.23;;
60006;SDS011;45863;50.336;3.536;2023-03-12T06:42:24;48.75;;;11.07;;
60006;SDS011;45863;50.336;3.536;2023-03-12T06:44:50;58.83;;;12.95;;
60006;SDS011;45863;50.336;3.536;2023-03-12T06:47:16;59.92;;;11.10;;
60006;SDS011;45863;50.336;3.536;2023-03-12T06:49:41;68.68;;;12.35;;
60006;SDS011;45863;50.336;3.536;2023-03-12T06:52:06;56.55;;;9.48;;
60006;SDS011;45863;50.336;3.536;2023-03-12T06:54:31;65.28;;;12.38;;
60006;SDS011;45863;50.336;3.536;2023-03-12T06:56:57;58.15;;;10.32;;
60006;SDS011;45863;50.336;3.536;2023-03-12T06:59:23;73.55;;;12.70;;
60006;SDS011;45863;50.336;3.536;2023-03-12T07:01:49;76.53;;;12.05;;
60006;SDS011;45863;50.336;3.536;2023-03-12T07:04:14;70.85;;;11.27;;
60006;SDS011;45863;50.336;3.536;2023-03-12T07:06:39;78.57;;;11.50;;
60006;SDS011;45863;50.336;3.536;2023-03-12T07:09:05;74.40;;;11.98;;
60006;SDS011;45863;50.336;3.536;2023-03-12T07:11:30;63.55;;;11.57;;
60006;SDS011;45863;50.336;3.536;2023-03-12T07:13:55;79.38;;;13.70;;
60006;SDS011;45863;50.336;3.536;2023-03-12T07:16:21;90.70;;;14.38;;
60006;SDS011;45863;50.336;3.536;2023-03-12T07:18:46;79.88;;;12.23;;
60006;SDS011;45863;50.336;3.536;2023-03-12T07:21:11;72.28;;;14.50;;
60006;SDS011;45863;50.336;3.536;2023-03-12T07:23:37;81.07;;;11.57;;
60006;SDS011;45863;50.336;3.536;2023-03-12T07:26:03;67.30;;;12.07;;
60006;SDS011;45863;50.336;3.536;2023-03-12T07:28:29;71.65;;;11.32;;
60006;SDS011;45863;50.336;3.536;2023-03-12T07:30:58;78.88;;;12.65;;
60006;SDS011;45863;50.336;3.536;2023-03-12T07:33:23;55.47;;;9.63;;
60006;SDS011;45863;50.336;3.536;2023-03-12T07:35:48;82.35;;;11.93;;
60006;SDS011;45863;50.336;3.536;2023-03-12T07:38:14;79.78;;;10.50;;
60006;SDS011;45863;50.336;3.536;2023-03-12T07:40:39;50.45;;;8.85;;
60006;SDS011;45863;50.336;3.536;2023-03-12T07:43:04;73.38;;;10.23;;
60006;SDS011;45863;50.336;3.536;2023-03-12T07:45:36;68.27;;;10.23;;
60006;SDS011;45863;50.336;3.536;2023-03-12T07:48:01;73.00;;;12.38;;
60006;SDS011;45863;50.336;3.536;2023-03-12T07:50:27;66.50;;;10.10;;
60006;SDS011;45863;50.336;3.536;2023-03-12T07:52:52;62.53;;;9.02;;
60006;SDS011;45863;50.336;3.536;2023-03-12T07:55:17;59.78;;;9.93;;
60006;SDS011;45863;50.336;3.536;2023-03-12T07:57:42;49.47;;;8.15;;
60006;SDS011;45863;50.336;3.536;2023-03-12T08:00:08;50.95;;;8.57;;
60006;SDS011;45863;50.336;3.536;2023-03-12T08:02:34;45.67;;;8.88;;
60006;SDS011;45863;50.336;3.536;2023-03-12T08:04:59;60.40;;;7.45;;
60006;SDS011;45863;50.336;3.536;2023-03-12T08:07:24;48.00;;;8.48;;
60006;SDS011;45863;50.336;3.536;2023-03-12T08:09:51;49.53;;;7.88;;
60006;SDS011;45863;50.336;3.536;2023-03-12T08:12:16;62.80;;;10.07;;
60006;SDS011;45863;50.336;3.536;2023-03-12T08:14:41;52.22;;;7.65;;
60006;SDS011;45863;50.336;3.536;2023-03-12T08:17:07;39.80;;;6.53;;
60006;SDS011;45863;50.336;3.536;2023-03-12T08:19:32;48.28;;;7.10;;
60006;SDS011;45863;50.336;3.536;2023-03-12T08:21:57;42.03;;;8.20;;
60006;SDS011;45863;50.336;3.536;2023-03-12T08:24:23;44.63;;;7.10;;
60006;SDS011;45863;50.336;3.536;2023-03-12T08:26:48;37.38;;;6.38;;
60006;SDS011;45863;50.336;3.536;2023-03-12T08:29:14;48.60;;;7.47;;
60006;SDS011;45863;50.336;3.536;2023-03-12T08:31:39;42.05;;;7.10;;
60006;SDS011;45863;50.336;3.536;2023-03-12T08:34:04;40.13;;;6.57;;
60006;SDS011;45863;50.336;3.536;2023-03-12T08:36:29;41.33;;;7.63;;
60006;SDS011;45863;50.336;3.536;2023-03-12T08:38:55;44.00;;;8.15;;
60006;SDS011;45863;50.336;3.536;2023-03-12T08:41:20;38.72;;;8.20;;
60006;SDS011;45863;50.336;3.536;2023-03-12T08:43:45;43.25;;;8.27;;
60006;SDS011;45863;50.336;3.536;2023-03-12T08:46:11;44.42;;;7.40;;
60006;SDS011;45863;50.336;3.536;2023-03-12T08:48:36;49.60;;;8.18;;
60006;SDS011;45863;50.336;3.536;2023-03-12T08:51:01;42.13;;;7.53;;
60006;SDS011;45863;50.336;3.536;2023-03-12T08:53:28;38.35;;;6.68;;
60006;SDS011;45863;50.336;3.536;2023-03-12T08:55:53;50.78;;;8.32;;
60006;SDS011;45863;50.336;3.536;2023-03-12T08:58:19;44.47;;;7.30;;
60006;SDS011;45863;50.336;3.536;2023-03-12T09:00:44;53.10;;;9.45;;
60006;SDS011;45863;50.336;3.536;2023-03-12T09:03:10;47.65;;;7.40;;
60006;SDS011;45863;50.336;3.536;2023-03-12T09:05:38;60.15;;;8.52;;
60006;SDS011;45863;50.336;3.536;2023-03-12T09:08:03;56.53;;;9.60;;
60006;SDS011;45863;50.336;3.536;2023-03-12T09:10:29;65.53;;;8.57;;
60006;SDS011;45863;50.336;3.536;2023-03-12T09:12:54;55.90;;;9.47;;
60006;SDS011;45863;50.336;3.536;2023-03-12T09:15:19;66.55;;;10.70;;
60006;SDS011;45863;50.336;3.536;2023-03-12T09:17:44;48.63;;;8.73;;
60006;SDS011;45863;50.336;3.536;2023-03-12T09:20:12;59.25;;;9.15;;
60006;SDS011;45863;50.336;3.536;2023-03-12T09:22:40;73.25;;;10.50;;
60006;SDS011;45863;50.336;3.536;2023-03-12T09:25:07;61.65;;;8.63;;
60006;SDS011;45863;50.336;3.536;2023-03-12T09:27:40;66.05;;;10.30;;
60006;SDS011;45863;50.336;3.536;2023-03-12T09:30:06;60.95;;;9.65;;
60006;SDS011;45863;50.336;3.536;2023-03-12T09:32:32;49.25;;;8.32;;
60006;SDS011;45863;50.336;3.536;2023-03-12T09:34:57;55.95;;;9.85;;
60006;SDS011;45863;50.336;3.536;2023-03-12T09:37:24;69.40;;;9.43;;
60006;SDS011;45863;50.336;3.536;2023-03-12T09:39:49;67.07;;;11.45;;
60006;SDS011;45863;50.336;3.536;2023-03-12T09:42:22;63.50;;;10.02;;
60006;SDS011;45863;50.336;3.536;2023-03-12T09:44:49;62.35;;;11.60;;
60006;SDS011;45863;50.336;3.536;2023-03-12T09:47:25;65.38;;;10.82;;
60006;SDS011;45863;50.336;3.536;2023-03-12T09:50:33;56.00;;;10.45;;
60006;SDS011;45863;50.336;3.536;2023-03-12T09:52:42;70.63;;;10.75;;
60006;SDS011;45863;50.336;3.536;2023-03-12T09:55:13;60.13;;;9.60;;
60006;SDS011;45863;50.336;3.536;2023-03-12T09:57:39;57.40;;;10.77;;
60006;SDS011;45863;50.336;3.536;2023-03-12T10:00:06;61.72;;;10.93;;
60006;SDS011;45863;50.336;3.536;2023-03-12T10:05:08;59.17;;;10.15;;
60006;SDS011;45863;50.336;3.536;2023-03-12T10:07:34;75.63;;;11.00;;
60006;SDS011;45863;50.336;3.536;2023-03-12T10:15:30;42.83;;;7.03;;
60006;SDS011;45863;50.336;3.536;2023-03-12T10:25:57;69.30;;;11.32;;
60006;SDS011;45863;50.336;3.536;2023-03-12T10:29:07;34.40;;;7.45;;
60006;SDS011;45863;50.336;3.536;2023-03-12T10:31:22;57.55;;;9.35;;
60006;SDS011;45863;50.336;3.536;2023-03-12T10:33:51;62.22;;;10.07;;
60006;SDS011;45863;50.336;3.536;2023-03-12T10:36:19;65.72;;;8.95;;
60006;SDS011;45863;50.336;3.536;2023-03-12T10:38:45;57.67;;;9.93;;
60006;SDS011;45863;50.336;3.536;2023-03-12T10:41:23;53.58;;;11.02;;
60006;SDS011;45863;50.336;3.536;2023-03-12T10:43:49;51.03;;;10.57;;
60006;SDS011;45863;50.336;3.536;2023-03-12T10:46:24;45.85;;;9.98;;
60006;SDS011;45863;50.336;3.536;2023-03-12T10:51:51;54.72;;;9.30;;
60006;SDS011;45863;50.336;3.536;2023-03-12T10:54:36;59.85;;;9.07;;
60006;SDS011;45863;50.336;3.536;2023-03-12T10:57:01;58.78;;;10.55;;
60006;SDS011;45863;50.336;3.536;2023-03-12T10:59:28;49.83;;;7.95;;
60006;SDS011;45863;50.336;3.536;2023-03-12T11:01:54;46.78;;;7.38;;
60006;SDS011;45863;50.336;3.536;2023-03-12T11:04:26;44.63;;;7.80;;
60006;SDS011;45863;50.336;3.536;2023-03-12T11:09:26;40.33;;;6.70;;
60006;SDS011;45863;50.336;3.536;2023-03-12T11:11:52;49.37;;;8.40;;
60006;SDS011;45863;50.336;3.536;2023-03-12T11:14:21;48.85;;;8.75;;
60006;SDS011;45863;50.336;3.536;2023-03-12T11:16:47;38.88;;;7.90;;
60006;SDS011;45863;50.336;3.536;2023-03-12T11:19:13;39.72;;;7.50;;
60006;SDS011;45863;50.336;3.536;2023-03-12T11:21:39;35.15;;;6.72;;
60006;SDS011;45863;50.336;3.536;2023-03-12T11:24:06;47.65;;;8.70;;
60006;SDS011;45863;50.336;3.536;2023-03-12T11:29:11;39.10;;;7.15;;
60006;SDS011;45863;50.336;3.536;2023-03-12T11:31:40;43.67;;;6.95;;
60006;SDS011;45863;50.336;3.536;2023-03-12T11:34:07;36.80;;;7.07;;
60006;SDS011;45863;50.336;3.536;2023-03-12T11:36:48;36.85;;;7.18;;
60006;SDS011;45863;50.336;3.536;2023-03-12T11:39:32;41.03;;;7.47;;
60006;SDS011;45863;50.336;3.536;2023-03-12T11:44:35;37.17;;;7.57;;
60006;SDS011;45863;50.336;3.536;2023-03-12T11:50:00;28.75;;;5.75;;
60006;SDS011;45863;50.336;3.536;2023-03-12T12:02:42;41.20;;;6.90;;
60006;SDS011;45863;50.336;3.536;2023-03-12T12:07:58;34.90;;;7.47;;
60006;SDS011;45863;50.336;3.536;2023-03-12T12:18:28;31.27;;;5.60;;
60006;SDS011;45863;50.336;3.536;2023-03-12T12:23:16;36.53;;;6.90;;
60006;SDS011;45863;50.336;3.536;2023-03-12T12:30:53;27.38;;;6.13;;
60006;SDS011;45863;50.336;3.536;2023-03-12T12:33:33;30.50;;;6.22;;
60006;SDS011;45863;50.336;3.536;2023-03-12T12:36:03;29.15;;;5.22;;
60006;SDS011;45863;50.336;3.536;2023-03-12T12:41:12;35.30;;;6.22;;
60006;SDS011;45863;50.336;3.536;2023-03-12T12:46:15;33.53;;;6.03;;
60006;SDS011;45863;50.336;3.536;2023-03-12T12:48:42;30.30;;;5.93;;
60006;SDS011;45863;50.336;3.536;2023-03-12T12:51:08;23.50;;;5.88;;
60006;SDS011;45863;50.336;3.536;2023-03-12T12:53:39;27.15;;;5.15;;
60006;SDS011;45863;50.336;3.536;2023-03-12T12:58:45;29.05;;;6.38;;
60006;SDS011;45863;50.336;3.536;2023-03-12T13:01:15;23.70;;;5.68;;
60006;SDS011;45863;50.336;3.536;2023-03-12T13:03:41;27.35;;;6.20;;
60006;SDS011;45863;50.336;3.536;2023-03-12T13:06:07;34.72;;;6.35;;
60006;SDS011;45863;50.336;3.536;2023-03-12T13:08:56;30.80;;;5.18;;
60006;SDS011;45863;50.336;3.536;2023-03-12T13:11:23;34.63;;;7.40;;
60006;SDS011;45863;50.336;3.536;2023-03-12T13:13:49;28.67;;;6.00;;
60006;SDS011;45863;50.336;3.536;2023-03-12T13:16:16;27.60;;;5.88;;
60006;SDS011;45863;50.336;3.536;2023-03-12T13:18:45;27.38;;;5.95;;
60006;SDS011;45863;50.336;3.536;2023-03-12T13:21:30;18.50;;;4.18;;
60006;SDS011;45863;50.336;3.536;2023-03-12T13:24:04;26.70;;;6.55;;
60006;SDS011;45863;50.336;3.536;2023-03-12T13:29:11;21.80;;;4.57;;
60006;SDS011;45863;50.336;3.536;2023-03-12T13:31:37;22.88;;;5.18;;
60006;SDS011;45863;50.336;3.536;2023-03-12T13:36:43;30.08;;;6.32;;
60006;SDS011;45863;50.336;3.536;2023-03-12T13:49:34;25.40;;;6.15;;
60006;SDS011;45863;50.336;3.536;2023-03-12T13:52:20;28.70;;;5.32;;
60006;SDS011;45863;50.336;3.536;2023-03-12T13:54:47;25.92;;;5.82;;
60006;SDS011;45863;50.336;3.536;2023-03-12T13:57:22;20.60;;;4.78;;
60006;SDS011;45863;50.336;3.536;2023-03-12T13:59:49;25.52;;;5.47;;
60006;SDS011;45863;50.336;3.536;2023-03-12T14:02:19;23.33;;;5.72;;
60006;SDS011;45863;50.336;3.536;2023-03-12T14:04:46;25.20;;;5.15;;
60006;SDS011;45863;50.336;3.536;2023-03-12T14:15:09;21.60;;;5.70;;
60006;SDS011;45863;50.336;3.536;2023-03-12T14:17:38;30.15;;;7.18;;
60006;SDS011;45863;50.336;3.536;2023-03-12T14:20:10;26.45;;;6.40;;
60006;SDS011;45863;50.336;3.536;2023-03-12T14:22:37;28.73;;;5.57;;
60006;SDS011;45863;50.336;3.536;2023-03-12T14:25:04;22.80;;;5.22;;
60006;SDS011;45863;50.336;3.536;2023-03-12T14:27:31;31.08;;;6.90;;
60006;SDS011;45863;50.336;3.536;2023-03-12T14:30:09;26.75;;;5.68;;
60006;SDS011;45863;50.336;3.536;2023-03-12T14:32:34;40.67;;;7.47;;
60006;SDS011;45863;50.336;3.536;2023-03-12T14:35:12;36.78;;;7.60;;
60006;SDS011;45863;50.336;3.536;2023-03-12T14:37:51;28.10;;;6.07;;
60006;SDS011;45863;50.336;3.536;2023-03-12T14:42:44;28.70;;;6.75;;
60006;SDS011;45863;50.336;3.536;2023-03-12T14:45:13;33.97;;;6.30;;
60006;SDS011;45863;50.336;3.536;2023-03-12T14:47:51;28.17;;;5.13;;
60006;SDS011;45863;50.336;3.536;2023-03-12T14:50:18;27.85;;;5.32;;
60006;SDS011;45863;50.336;3.536;2023-03-12T14:52:44;21.73;;;6.03;;
60006;SDS011;45863;50.336;3.536;2023-03-12T14:55:13;30.80;;;6.88;;
60006;SDS011;45863;50.336;3.536;2023-03-12T14:57:39;26.45;;;6.47;;
60006;SDS011;45863;50.336;3.536;2023-03-12T15:00:05;25.27;;;5.03;;
60006;SDS011;45863;50.336;3.536;2023-03-12T15:02:38;18.25;;;3.85;;
60006;SDS011;45863;50.336;3.536;2023-03-12T15:05:04;30.17;;;5.72;;
60006;SDS011;45863;50.336;3.536;2023-03-12T15:07:34;28.67;;;5.90;;
60006;SDS011;45863;50.336;3.536;2023-03-12T15:10:01;30.23;;;6.43;;
60006;SDS011;45863;50.336;3.536;2023-03-12T15:12:28;31.15;;;5.90;;
60006;SDS011;45863;50.336;3.536;2023-03-12T15:14:58;31.33;;;5.78;;
60006;SDS011;45863;50.336;3.536;2023-03-12T15:17:25;24.67;;;6.07;;
60006;SDS011;45863;50.336;3.536;2023-03-12T15:19:52;27.13;;;5.88;;
60006;SDS011;45863;50.336;3.536;2023-03-12T15:22:19;36.05;;;6.80;;
60006;SDS011;45863;50.336;3.536;2023-03-12T15:24:45;25.67;;;6.88;;
60006;SDS011;45863;50.336;3.536;2023-03-12T15:27:17;29.60;;;6.03;;
60006;SDS011;45863;50.336;3.536;2023-03-12T15:29:43;22.85;;;5.47;;
60006;SDS011;45863;50.336;3.536;2023-03-12T15:32:12;28.83;;;5.80;;
60006;SDS011;45863;50.336;3.536;2023-03-12T15:34:38;24.95;;;5.78;;
60006;SDS011;45863;50.336;3.536;2023-03-12T15:39:48;30.48;;;7.07;;
60006;SDS011;45863;50.336;3.536;2023-03-12T15:42:15;26.77;;;6.97;;
60006;SDS011;45863;50.336;3.536;2023-03-12T15:44:47;28.90;;;6.00;;
60006;SDS011;45863;50.336;3.536;2023-03-12T15:47:17;25.30;;;5.68;;
60006;SDS011;45863;50.336;3.536;2023-03-12T15:49:43;30.63;;;4.80;;
60006;SDS011;45863;50.336;3.536;2023-03-12T15:57:27;22.17;;;4.82;;
60006;SDS011;45863;50.336;3.536;2023-03-12T16:02:45;24.80;;;5.80;;
60006;SDS011;45863;50.336;3.536;2023-03-12T16:05:11;21.27;;;5.35;;
60006;SDS011;45863;50.336;3.536;2023-03-12T16:07:36;22.77;;;4.50;;
60006;SDS011;45863;50.336;3.536;2023-03-12T16:10:02;21.42;;;4.78;;
60006;SDS011;45863;50.336;3.536;2023-03-12T16:12:27;16.67;;;4.03;;
60006;SDS011;45863;50.336;3.536;2023-03-12T16:14:52;12.75;;;3.08;;
60006;SDS011;45863;50.336;3.536;2023-03-12T16:17:19;28.48;;;6.68;;
60006;SDS011;45863;50.336;3.536;2023-03-12T16:19:45;25.90;;;4.82;;